Thunder radar more information blitzortung!


avis per Pluja more information rain snow radar


Visita la nostra xarxa de llocs de meteo:

Template documentation
and downloads

And another site



Rain From: 17-10-2018 23:00 Until: 18-10-2018 16:59 warning for: Rain Level: Yellow info button

Pagina Historial Weather Underground text

Diari Resum Marc 4, 2016 Unitats:  Mètric    Imperial   Tant
« Previous Dia
SegĂźent Dia »
Diari Setmana Mensual Anual Personalitzada
  Maxima: Minima: Media:
Temperatura: -17.8 °C -13.3 °C -10.7 °C
Punt de rosada: -17.8 °C -18.3 °C -15.3 °C
Humitat: Humidity % 39 % 57 %
Wind Speed: 0 km/h 0 km/h 15.6 km/h
RĂ fegues de vent: 0 km/h - -
Vent:- - SW
Pression baro: 0 hPa 33788.9 hPa -
Precipitacions: 0 mm    
Historical Graphs
 
 
Dades de taula per Marc 4, 2016
Temps Temperatura Punt de rosada Pression baro Vent Wind Speed RĂ fegues de vent Humitat Rainfall Rate (Hourly)
-17.8 °C -17.8 °C 0 hPa Calm     Humidity % 0 mm
03:10 -13.3 °C -16.8 °C 34256.2 hPa WSW 5.1 km/h 5.1 km/h 64 % 0 mm
03:20 -12.9 °C -16.5 °C 34256.2 hPa WSW 7.7 km/h 10.3 km/h 64 % 0 mm
03:30 -12.6 °C -16.3 °C 34256.2 hPa West 5.1 km/h 5.1 km/h 63 % 0 mm
03:40 -12.4 °C -16.2 °C 34222.3 hPa West 2.6 km/h 5.1 km/h 63 % 0 mm
03:50 -12.2 °C -16 °C 34198.6 hPa WSW 2.6 km/h 5.1 km/h 62 % 0 mm
04:00 -12.3 °C -16.2 °C 34198.6 hPa WSW 5.1 km/h 5.1 km/h 62 % 0 mm
04:10 -12.2 °C -16.2 °C 34222.3 hPa WSW 7.7 km/h 10.3 km/h 61 % 0 mm
04:20 -12.1 °C -16.1 °C 34198.6 hPa WSW 2.6 km/h 7.7 km/h 61 % 0 mm
04:30 -11.8 °C -15.8 °C 34198.6 hPa WSW 5.1 km/h 10.3 km/h 61 % 0 mm
04:40 -11.5 °C -15.7 °C 34198.6 hPa WSW 5.1 km/h 7.7 km/h 60 % 0 mm
10:43 -11.4 °C -15.8 °C 34198.6 hPa SW 9 km/h 9 km/h 58 % 0 mm
10:48 -11.4 °C -15.8 °C 34198.6 hPa SW 9 km/h 9 km/h 58 % 0 mm
10:53 -11.2 °C -15.7 °C 34198.6 hPa SSW 11.9 km/h 11.9 km/h 58 % 0 mm
10:58 -11.1 °C -15.7 °C 34198.6 hPa SE 6 km/h 6 km/h 57 % 0 mm
11:03 -11 °C -15.7 °C 34198.6 hPa West 15.3 km/h 15.3 km/h 56 % 0 mm
11:08 -10.9 °C -15.7 °C 34198.6 hPa SSW 14.5 km/h 14.5 km/h 56 % 0 mm
11:13 -10.9 °C -15.8 °C 34198.6 hPa WSW 15 km/h 15 km/h 55 % 0 mm
11:18 -10.7 °C -15.6 °C 34198.6 hPa WSW 17.9 km/h 17.9 km/h 55 % 0 mm
11:23 -10.6 °C -15.5 °C 34198.6 hPa WSW 15 km/h 15 km/h 55 % 0 mm
11:28 -10.4 °C -15.3 °C 34198.6 hPa SW 15.6 km/h 15.6 km/h 55 % 0 mm
11:33 -10.4 °C -15.5 °C 34198.6 hPa SSW 15 km/h 15 km/h 54 % 0 mm
11:38 -10.3 °C -15.3 °C 34198.6 hPa SSW 25.4 km/h 25.4 km/h 54 % 0 mm
11:43 -10.3 °C -15.3 °C 34164.7 hPa SW 20.9 km/h 20.9 km/h 54 % 0 mm
11:48 -10.2 °C -15.4 °C 34164.7 hPa WSW 22 km/h 22 km/h 53 % 0 mm
11:53 -10.1 °C -15.3 °C 34164.7 hPa SW 15 km/h 15 km/h 53 % 0 mm
11:58 -10.1 °C -15.3 °C 34164.7 hPa WSW 20.9 km/h 20.9 km/h 53 % 0 mm
12:03 -9.9 °C -15.2 °C 34164.7 hPa WSW 15.3 km/h 15.3 km/h 53 % 0 mm
12:08 -9.9 °C -15.2 °C 34164.7 hPa SSW 20.9 km/h 20.9 km/h 53 % 0 mm
12:13 -9.5 °C -14.8 °C 34130.9 hPa WSW 15 km/h 15 km/h 53 % 0 mm
12:18 -9.4 °C -14.8 °C 34130.9 hPa West 22 km/h 22 km/h 52 % 0 mm
12:23 -9.6 °C -15.1 °C 34130.9 hPa SSW 26.9 km/h 26.9 km/h 51 % 0 mm
12:28 -9.4 °C -14.9 °C 34130.9 hPa WSW 22 km/h 22 km/h 51 % 0 mm
12:33 -9.5 °C -15.1 °C 34130.9 hPa SSW 35.7 km/h 35.7 km/h 51 % 0 mm
12:38 -9.4 °C -15.2 °C 34130.9 hPa SW 32.8 km/h 32.8 km/h 50 % 0 mm
12:43 -9.3 °C -15.1 °C 34130.9 hPa SW 29.8 km/h 29.8 km/h 50 % 0 mm
12:48 -9.2 °C -15 °C 34130.9 hPa SSW 32.8 km/h 32.8 km/h 50 % 0 mm
12:53 -9.2 °C -15.1 °C 34130.9 hPa SW 26.9 km/h 26.9 km/h 49 % 0 mm
12:58 -9.2 °C -15.2 °C 34097 hPa SW 29.8 km/h 29.8 km/h 49 % 0 mm
13:03 -9 °C -14.8 °C 34097 hPa SW 20.9 km/h 20.9 km/h 50 % 0 mm
13:08 -9.1 °C -15.1 °C 34097 hPa South 35.7 km/h 35.7 km/h 49 % 0 mm
13:13 -8.9 °C -14.8 °C 34097 hPa SW 32.8 km/h 32.8 km/h 49 % 0 mm
13:18 -9.1 °C -15 °C 34097 hPa WSW 35.7 km/h 35.7 km/h 49 % 0 mm
13:23 -8.9 °C -14.9 °C 34097 hPa WSW 32.8 km/h 32.8 km/h 49 % 0 mm
13:28 -8.8 °C -14.8 °C 34097 hPa SW 20.9 km/h 20.9 km/h 49 % 0 mm
13:33 -8.6 °C -14.8 °C 34097 hPa SSW 35.7 km/h 35.7 km/h 48 % 0 mm
13:38 -8.6 °C -14.7 °C 34097 hPa SW 35.7 km/h 35.7 km/h 48 % 0 mm
13:43 -8.6 °C -14.8 °C 34097 hPa SSW 17.9 km/h 17.9 km/h 48 % 0 mm
13:48 -8.7 °C -14.9 °C 34097 hPa SW 38.1 km/h 38.1 km/h 47 % 0 mm
13:53 -8.9 °C -15.2 °C 34097 hPa SW 28.2 km/h 28.2 km/h 47 % 0 mm
13:58 -8.7 °C -15.1 °C 34097 hPa SW 18.3 km/h 18.3 km/h 47 % 0 mm
14:03 -8.6 °C -14.9 °C 34097 hPa SW 41.7 km/h 41.7 km/h 47 % 0 mm
14:08 -8.6 °C -15.1 °C 34097 hPa SW 23.8 km/h 23.8 km/h 46 % 0 mm
14:18 -8.3 °C -15.2 °C 34063.2 hPa WSW 44.7 km/h 44.7 km/h 44 % 0 mm
14:23 -8.4 °C -15.3 °C 34063.2 hPa WNW 24.3 km/h 24.3 km/h 44 % 0 mm
14:28 -8.4 °C -15.4 °C 34063.2 hPa SW 44.7 km/h 44.7 km/h 43 % 0 mm
14:33 -8.4 °C -15.4 °C 34063.2 hPa SSW 20.9 km/h 20.9 km/h 43 % 0 mm
14:38 -8.2 °C -15.4 °C 34063.2 hPa SW 37 km/h 37 km/h 42 % 0 mm
14:43 -8.4 °C -15.9 °C 34063.2 hPa WNW 44.7 km/h 44.7 km/h 41 % 0 mm
14:48 -8.2 °C -15.9 °C 34063.2 hPa SW 29.8 km/h 29.8 km/h 40 % 0 mm
14:53 -8.3 °C -15.9 °C 34063.2 hPa SW 37 km/h 37 km/h 40 % 0 mm
14:58 -8.4 °C -16.2 °C 34063.2 hPa SSW 27.2 km/h 27.2 km/h 39 % 0 mm
15:03 -8.4 °C -16.2 °C 34063.2 hPa WSW 20.3 km/h 20.3 km/h 39 % 0 mm
15:08 -8.4 °C -16.2 °C 34063.2 hPa SW 40.4 km/h 40.4 km/h 39 % 0 mm
15:13 -8.6 °C -16.3 °C 34063.2 hPa SW 38.1 km/h 38.1 km/h 39 % 0 mm
15:18 -8.6 °C -16.2 °C 34063.2 hPa WSW 29.8 km/h 29.8 km/h 40 % 0 mm
15:23 -8.6 °C -16.4 °C 34063.2 hPa SW 44.7 km/h 44.7 km/h 39 % 0 mm
15:28 -8.6 °C -16.2 °C 34029.3 hPa West 26.9 km/h 26.9 km/h 40 % 0 mm
15:33 -8.6 °C -16.2 °C 34029.3 hPa SSE 35.7 km/h 35.7 km/h 40 % 0 mm
15:38 -8.7 °C -16.1 °C 34029.3 hPa WSW 22.5 km/h 22.5 km/h 41 % 0 mm
15:43 -8.7 °C -16.1 °C 34029.3 hPa SSW 38.8 km/h 38.8 km/h 41 % 0 mm
15:48 -8.8 °C -16.2 °C 34029.3 hPa SW 32.8 km/h 32.8 km/h 41 % 0 mm
15:53 -8.7 °C -16.1 °C 34029.3 hPa WSW 29.8 km/h 29.8 km/h 41 % 0 mm
15:58 -8.8 °C -15.9 °C 33992.1 hPa SW 26.9 km/h 26.9 km/h 42 % 0 mm
16:03 -8.8 °C -16.2 °C 33992.1 hPa SSW 46.8 km/h 46.8 km/h 41 % 0 mm
16:08 -8.8 °C -16.2 °C 33992.1 hPa SW 23.8 km/h 23.8 km/h 41 % 0 mm
16:13 -8.8 °C -15.9 °C 33992.1 hPa WSW 28.2 km/h 28.2 km/h 42 % 0 mm
16:18 -8.9 °C -16.1 °C 33992.1 hPa SSW 32.8 km/h 32.8 km/h 42 % 0 mm
16:23 -8.8 °C -16 °C 33992.1 hPa WSW 17.9 km/h 17.9 km/h 42 % 0 mm
16:28 -8.8 °C -15.8 °C 33958.2 hPa WSW 33.2 km/h 33.2 km/h 43 % 0 mm
16:33 -9 °C -16 °C 33958.2 hPa SW 29.8 km/h 29.8 km/h 43 % 0 mm
16:38 -9.1 °C -15.9 °C 33958.2 hPa SW 35.7 km/h 35.7 km/h 44 % 0 mm
16:43 -9.2 °C -15.8 °C 33958.2 hPa SW 29.8 km/h 29.8 km/h 45 % 0 mm
16:48 -9.1 °C -15.7 °C 33958.2 hPa SSW 26.9 km/h 26.9 km/h 45 % 0 mm
16:53 -9.4 °C -15.7 °C 33958.2 hPa WSW 38.8 km/h 38.8 km/h 47 % 0 mm
16:58 -9.6 °C -15.8 °C 33958.2 hPa SW 23.8 km/h 23.8 km/h 47 % 0 mm
17:03 -9.8 °C -15.7 °C 33958.2 hPa SW 32.8 km/h 32.8 km/h 49 % 0 mm
17:08 -9.8 °C -15.5 °C 33958.2 hPa WSW 20.9 km/h 20.9 km/h 50 % 0 mm
17:13 -9.8 °C -15.4 °C 33958.2 hPa WSW 33.6 km/h 33.6 km/h 51 % 0 mm
17:18 -9.9 °C -15.4 °C 33958.2 hPa SSW 26.4 km/h 26.4 km/h 51 % 0 mm
17:23 -9.9 °C -15.3 °C 33958.2 hPa SW 23.8 km/h 23.8 km/h 52 % 0 mm
17:28 -10 °C -15.4 °C 33958.2 hPa WSW 26.9 km/h 26.9 km/h 52 % 0 mm
17:30 -12.2 °C -14.5 °C 33822.8 hPa Calm     75 % 0 mm
17:33 -10 °C -15.2 °C 33958.2 hPa SW 17.9 km/h 17.9 km/h 53 % 0 mm
17:38 -10.2 °C -15.2 °C 33958.2 hPa SW 23.8 km/h 23.8 km/h 54 % 0 mm
17:40 -12.1 °C -14.6 °C 33822.8 hPa East 2.6 km/h 2.6 km/h 74 % 0 mm
17:43 -10.1 °C -15.2 °C 33958.2 hPa SW 25.9 km/h 25.9 km/h 54 % 0 mm
17:48 -10.1 °C -15.1 °C 33958.2 hPa SSW 17.9 km/h 17.9 km/h 55 % 0 mm
17:50 -12.1 °C -14.3 °C 33822.8 hPa Calm     76 % 0 mm
17:53 -10.1 °C -14.9 °C 33958.2 hPa WSW 26.9 km/h 26.9 km/h 56 % 0 mm
17:58 -10.2 °C -14.8 °C 33958.2 hPa WSW 23.8 km/h 23.8 km/h 57 % 0 mm
18:00 -12.1 °C -14.3 °C 33822.8 hPa West 5.1 km/h 10.3 km/h 76 % 0 mm
18:03 -10.3 °C -14.8 °C 33958.2 hPa WSW 23.8 km/h 23.8 km/h 58 % 0 mm
18:08 -10.4 °C -14.9 °C 33958.2 hPa SSW 20.9 km/h 20.9 km/h 58 % 0 mm
18:10 -11.9 °C -14.3 °C 33822.8 hPa West 2.6 km/h 7.7 km/h 75 % 0 mm
18:13 -10.5 °C -14.8 °C 33924.3 hPa SW 20.9 km/h 20.9 km/h 59 % 0 mm
18:18 -10.5 °C -14.8 °C 33924.3 hPa WSW 11.9 km/h 11.9 km/h 59 % 0 mm
18:20 -11.8 °C -14.6 °C 33856.6 hPa West 5.1 km/h 5.1 km/h 72 % 0 mm
18:23 -10.6 °C -14.9 °C 33924.3 hPa SW 9 km/h 9 km/h 59 % 0 mm
18:28 -10.6 °C -14.8 °C 33924.3 hPa WSW 15 km/h 15 km/h 60 % 0 mm
18:30 -11.7 °C -14.6 °C 33856.6 hPa WNW 5.1 km/h 5.1 km/h 70 % 0 mm
18:34 -10.6 °C -14.8 °C 33924.3 hPa SW 15 km/h 15 km/h 60 % 0 mm
18:39 -10.7 °C -14.8 °C 33924.3 hPa SSW 17.9 km/h 17.9 km/h 61 % 0 mm
18:40 -11.4 °C -14.6 °C 33856.6 hPa West 2.6 km/h 10.3 km/h 68 % 0 mm
18:44 -10.7 °C -14.8 °C 33924.3 hPa WSW 15 km/h 15 km/h 61 % 0 mm
18:49 -10.7 °C -14.8 °C 33924.3 hPa SW 11.9 km/h 11.9 km/h 61 % 0 mm
18:50 -11.3 °C -14.8 °C 33856.6 hPa West 18.2 km/h 20.8 km/h 66 % 0 mm
18:54 -10.7 °C -14.7 °C 33924.3 hPa SSW 15 km/h 15 km/h 62 % 0 mm
18:59 -10.8 °C -14.7 °C 33924.3 hPa SSW 17.9 km/h 17.9 km/h 62 % 0 mm
19:00 -11.3 °C -15.1 °C 33856.6 hPa West 12.9 km/h 15.6 km/h 63 % 0 mm
19:04 -10.8 °C -14.5 °C 33924.3 hPa SW 15 km/h 15 km/h 64 % 0 mm
19:09 -10.8 °C -14.5 °C 33924.3 hPa SW 20.9 km/h 20.9 km/h 64 % 0 mm
19:10 -11.3 °C -15.1 °C 33856.6 hPa WSW 5.1 km/h 10.3 km/h 63 % 0 mm
19:14 -10.8 °C -14.5 °C 33924.3 hPa SW 15 km/h 15 km/h 64 % 0 mm
19:19 -10.9 °C -14.4 °C 33924.3 hPa SW 11.9 km/h 11.9 km/h 65 % 0 mm
19:20 -11.3 °C -15.2 °C 33822.8 hPa SW 7.7 km/h 10.3 km/h 62 % 0 mm
19:24 -10.9 °C -14.4 °C 33924.3 hPa SW 11.9 km/h 11.9 km/h 65 % 0 mm
19:34 -10.9 °C -14.5 °C 33924.3 hPa SW 11.9 km/h 11.9 km/h 65 % 0 mm
19:39 -11 °C -14.4 °C 33924.3 hPa SSW 15 km/h 15 km/h 66 % 0 mm
19:40 -11.1 °C -15.3 °C 33822.8 hPa West 7.7 km/h 20.8 km/h 60 % 0 mm
19:44 -11 °C -14.3 °C 33924.3 hPa WSW 11.9 km/h 11.9 km/h 67 % 0 mm
19:49 -11 °C -14.2 °C 33924.3 hPa WSW 17.9 km/h 17.9 km/h 68 % 0 mm
19:50 -11.1 °C -15.4 °C 33822.8 hPa WSW 7.7 km/h 15.6 km/h 59 % 0 mm
19:54 -11.1 °C -14.3 °C 33924.3 hPa West 10.3 km/h 10.3 km/h 67 % 0 mm
19:59 -11.1 °C -14.3 °C 33924.3 hPa Calm     67 % 0 mm
20:00 -11.2 °C -15.3 °C 33822.8 hPa SW 5.1 km/h 15.6 km/h 60 % 0 mm
20:09 -11.2 °C -14.5 °C 33924.3 hPa WSW 6 km/h 6 km/h 67 % 0 mm
20:10 -11.2 °C -15.3 °C 33822.8 hPa WSW 5.1 km/h 10.3 km/h 60 % 0 mm
20:14 -11.2 °C -14.5 °C 33924.3 hPa SW 9 km/h 9 km/h 67 % 0 mm
20:19 -11.2 °C -14.4 °C 33924.3 hPa SW 6 km/h 6 km/h 68 % 0 mm
20:20 -11.2 °C -15.4 °C 33822.8 hPa West 5.1 km/h 5.1 km/h 60 % 0 mm
20:24 -11.2 °C -14.4 °C 33924.3 hPa WSW 11.9 km/h 11.9 km/h 68 % 0 mm
20:29 -11.2 °C -14.4 °C 33924.3 hPa WSW 9 km/h 9 km/h 68 % 0 mm
20:30 -11.2 °C -15.7 °C 33822.8 hPa West 12.9 km/h 15.6 km/h 58 % 0 mm
20:34 -11.2 °C -14.2 °C 33924.3 hPa SSE 4.2 km/h   70 % 0 mm
20:39 -11.3 °C -14.3 °C 33924.3 hPa WSW 6 km/h 6 km/h 69 % 0 mm
20:40 -11.3 °C -15.8 °C 33822.8 hPa WNW 7.7 km/h 7.7 km/h 58 % 0 mm
20:44 -11.3 °C -14.3 °C 33924.3 hPa SW 3.1 km/h 3.7 km/h 69 % 0 mm
20:49 -11.3 °C -14.2 °C 33924.3 hPa Calm     70 % 0 mm
20:50 -11.4 °C -15.8 °C 33822.8 hPa West 2.6 km/h 10.3 km/h 58 % 0 mm
20:54 -11.3 °C -14.3 °C 33924.3 hPa NNW 6 km/h 6 km/h 69 % 0 mm
20:59 -11.3 °C -14.3 °C 33890.5 hPa Calm     70 % 0 mm
21:00 -11.5 °C -16.1 °C 33822.8 hPa WSW 5.1 km/h 12.9 km/h 57 % 0 mm
21:04 -11.4 °C -14.3 °C 33890.5 hPa NNW 3.1 km/h   70 % 0 mm
21:09 -11.4 °C -14.3 °C 33890.5 hPa Calm     70 % 0 mm
21:10 -11.6 °C -16.3 °C 33822.8 hPa WSW 12.9 km/h 12.9 km/h 56 % 0 mm
21:14 -11.4 °C -14.2 °C 33890.5 hPa Calm     71 % 0 mm
21:19 -11.4 °C -14.4 °C 33890.5 hPa North 3.1 km/h   70 % 0 mm
21:20 -11.7 °C -16.6 °C 33822.8 hPa WSW 7.7 km/h 15.6 km/h 55 % 0 mm
21:24 -11.5 °C -14.4 °C 33890.5 hPa WSW 6 km/h 6 km/h 70 % 0 mm
21:29 -11.5 °C -14.4 °C 33856.6 hPa Calm     70 % 0 mm
21:30 -11.9 °C -16.8 °C 33822.8 hPa WSW 12.9 km/h 25.9 km/h 54 % 0 mm
21:34 -11.5 °C -14.4 °C 33856.6 hPa Calm     70 % 0 mm
21:39 -11.6 °C -14.4 °C 33856.6 hPa Calm     71 % 0 mm
21:40 -12 °C -16.9 °C 33822.8 hPa WSW 5.1 km/h 23.3 km/h 54 % 0 mm
21:44 -11.6 °C -14.4 °C 33856.6 hPa Calm     71 % 0 mm
21:49 -11.6 °C -14.4 °C 33856.6 hPa Calm     71 % 0 mm
21:50 -12.1 °C -17.2 °C 33822.8 hPa WSW 15.6 km/h 20.8 km/h 53 % 0 mm
21:54 -11.7 °C -14.5 °C 33856.6 hPa Calm     71 % 0 mm
21:59 -11.8 °C -14.6 °C 33856.6 hPa WNW 3.7 km/h   71 % 0 mm
22:00 -12.2 °C -17.3 °C 33822.8 hPa West 7.7 km/h 15.6 km/h 53 % 0 mm
22:04 -11.8 °C -14.5 °C 33856.6 hPa SSE 3.1 km/h   72 % 0 mm
22:09 -11.8 °C -14.6 °C 33856.6 hPa Calm     72 % 0 mm
22:10 -12.3 °C -17.4 °C 33788.9 hPa WSW 7.7 km/h 33.6 km/h 53 % 0 mm
22:14 -11.9 °C -14.5 °C 33856.6 hPa Calm     73 % 0 mm
22:19 -12 °C -14.6 °C 33856.6 hPa Calm     73 % 0 mm
22:20 -12.4 °C -17.7 °C 33788.9 hPa West 18.2 km/h 18.2 km/h 52 % 0 mm
22:24 -12.1 °C -14.6 °C 33856.6 hPa Calm     73 % 0 mm
22:29 -12.1 °C -14.6 °C 33822.8 hPa ESE 3.1 km/h 3.1 km/h 74 % 0 mm
22:30 -12.6 °C -17.8 °C 33788.9 hPa West 15.6 km/h 15.6 km/h 52 % 0 mm
22:34 -12.1 °C -14.6 °C 33822.8 hPa East 3.1 km/h   74 % 0 mm
22:39 -12.1 °C -14.6 °C 33822.8 hPa Calm     74 % 0 mm
22:40 -12.7 °C -17.9 °C 33788.9 hPa West 7.7 km/h 15.6 km/h 52 % 0 mm
22:44 -12.1 °C -14.5 °C 33822.8 hPa Calm     75 % 0 mm
22:49 -12.1 °C -14.5 °C 33822.8 hPa Calm     75 % 0 mm
22:50 -12.7 °C -17.9 °C 33822.8 hPa West 12.9 km/h 12.9 km/h 52 % 0 mm
22:54 -12.1 °C -14.5 °C 33822.8 hPa East 3.1 km/h 3.1 km/h 75 % 0 mm
22:59 -12.1 °C -14.5 °C 33822.8 hPa Calm     75 % 0 mm
23:00 -12.8 °C -17.9 °C 33822.8 hPa WNW 5.1 km/h 10.3 km/h 52 % 0 mm
23:04 -12.2 °C -14.5 °C 33822.8 hPa Calm     75 % 0 mm
23:09 -12.2 °C -14.6 °C 33822.8 hPa Calm     75 % 0 mm
23:10 -12.9 °C -18.1 °C 33822.8 hPa NNE 5.1 km/h 15.6 km/h 52 % 0 mm
23:14 -12.2 °C -14.6 °C 33822.8 hPa Calm     75 % 0 mm
23:19 -12.2 °C -14.5 °C 33822.8 hPa Calm     75 % 0 mm
23:20 -13 °C -18 °C 33856.6 hPa North 2.6 km/h 5.1 km/h 53 % 0 mm
23:24 -12.2 °C -14.5 °C 33822.8 hPa Calm     75 % 0 mm
23:30 -13.1 °C -18.1 °C 33856.6 hPa NW 7.7 km/h 20.8 km/h 53 % 0 mm
23:40 -13.2 °C -18.2 °C 33822.8 hPa West 7.7 km/h 10.3 km/h 53 % 0 mm
23:50 -13.3 °C -18.3 °C 33856.6 hPa WSW 5.1 km/h 15.6 km/h 53 % 0 mm
Meteo Sesrovires
Elogis d' Weather Underground - 1.5 mb

Guio original per  Jim McMurry - jmcmurry@mwt.net Adaptat per a la plantilla per  Wim van der Kuil - Leuven-Template.eu

Trobareu la nostra informacio del temps tambe a:

Weather Underground

AWEKAS